Airfield :
LOGIN :

Register | Disclaimer

   EN    FR    IT 

 










Legend :    VFR   Marginal VFR   IFR   Intensive IFR   Very Intensive IFR
Visi :
Ceiling :
>= 8 km
>= 3000ft
5 to 8 km
1000 to 3000 ft
1500m to 5 km
500 to 1000 ft
800 to 1500m
200 to 500 ft
< 800m
< 200 ft
Symbols :   Thunderstorms  Fog  Heavy snow  Heavy precipitations  Wind > 20 kt
SIGMETs :     Misc.  Thunderstorms  Icing  Turbulence  Mountain Waves  Volcanic Ashes







- Airport Elevation : 157 ft
- IATA code : LIL
- Download approach charts


LFQQ - Lille Lesquin

CURRENT METAR :
  • 281230Z AUTO 25013KT 220V280 9999 FEW038 SCT049 BKN062 21/11 Q1013 NOSIG

EXPIRED METARs :
  • 281200Z AUTO 23014KT 190V260 9999 BKN035 BKN054 BKN064 20/12 Q1013 NOSIG
  • 281130Z AUTO 23011KT 190V260 9999 FEW044 SCT056 BKN120 20/12 Q1013 NOSIG
  • 281100Z AUTO 23016KT 9999 BKN034 BKN058 BKN086 18/13 Q1013 NOSIG
  • 281030Z AUTO 23012KT 9999 BKN029 BKN037 BKN045 20/12 Q1013 NOSIG
  • 281000Z AUTO 22010KT 9999 FEW023 SCT032 BKN052 19/12 Q1013 NOSIG

TAF TAF LFQQ
Valid from the 28 at 06:00 until the 29 at 12:00 UTC


280500Z 2806/2912 21012KT 9999 SCT025
ATIS : +33 3 20 16 19 54
No reported NOTAMs for that airfield.



MET'MAP, your aeronautical weather chart ! - Copyright ORBIFLY December 2007 - Disclaimer

ORBIFLY MET'MAP TEAM :

Programming & Development : Alexandra Zaïnal
Concept & Development : Baudouin d'Aumeries
Co-Development & Prog : Marc-Olivier Méhu
Technical & hardware support : Manuel Goepfert

Contact : metmap@orbifly.com




SOURCES & CREDITS :

   NOAA